^^
Saratoga-Weather Station Historical Data
Daily Summary for May 18, 2020 Units:  Both    English   Metric
Daily Weekly Monthly Yearly Custom
  High: Low: Average:
Temperature: 73.2 °F /  22.9 °C 52.3 °F /  11.3 °C 62.1 °F /  16.7 °C
Dew Point: 59.2 °F /  15.1 °C 51.3 °F /  10.7 °C 55 °F /  12.8 °C
Humidity: 98% 51% 80%
Wind Speed: 8.1mph /  13km/h - 1.4mph /  2.2km/h
Wind Gust: 14mph /  22.5km/h - -
Wind- - WSW
Pressure: 29.9 in /  1013.9 hPa 29.9 in /  1010.8 hPa -
Precipitation: 0 in /  0.0 mm    
Historical Graphs
 
 
Tabular Data for May 18, 2020
Time Temperature Dew Point Pressure Wind Wind Speed Wind Gust Humidity Rainfall Rate (Hourly) solar
00:02 55.9 °F /  13.3 °C 54.9 °F /  12.7 °C 29.9in /  1011.9hPa Calm     96% 0in /  0.0mm 0 W/m2
00:07 55.9 °F /  13.3 °C 54.9 °F /  12.7 °C 29.9in /  1011.9hPa Calm     96% 0in /  0.0mm 0 W/m2
00:17 55.9 °F /  13.3 °C 54.9 °F /  12.7 °C 29.9in /  1011.9hPa ESE 0.9mph /  1.4km/h 1mph /  1.6km/h 96% 0in /  0.0mm 0 W/m2
00:22 55.9 °F /  13.3 °C 54.9 °F /  12.7 °C 29.9in /  1011.9hPa Calm     96% 0in /  0.0mm 0 W/m2
00:27 55.8 °F /  13.2 °C 54.7 °F /  12.6 °C 29.9in /  1011.9hPa Calm     96% 0in /  0.0mm 0 W/m2
00:32 55.8 °F /  13.2 °C 54.7 °F /  12.6 °C 29.9in /  1011.9hPa Calm     96% 0in /  0.0mm 0 W/m2
00:37 55.6 °F /  13.1 °C 54.5 °F /  12.5 °C 29.9in /  1011.9hPa Calm     96% 0in /  0.0mm 0 W/m2
00:46 55.6 °F /  13.1 °C 54.5 °F /  12.5 °C 29.9in /  1011.5hPa Calm     96% 0in /  0.0mm 0 W/m2
00:51 55.4 °F /  13 °C 54.3 °F /  12.4 °C 29.9in /  1011.5hPa ESE 2mph /  3.2km/h 2mph /  3.2km/h 96% 0in /  0.0mm 0 W/m2
00:56 55.2 °F /  12.9 °C 54.1 °F /  12.3 °C 29.9in /  1011.5hPa Calm     96% 0in /  0.0mm 0 W/m2
01:06 55.2 °F /  12.9 °C 54.1 °F /  12.3 °C 29.9in /  1011.5hPa Calm     96% 0in /  0.0mm 0 W/m2
01:11 55.2 °F /  12.9 °C 54.1 °F /  12.3 °C 29.9in /  1011.5hPa Calm     96% 0in /  0.0mm 0 W/m2
01:16 55 °F /  12.8 °C 54 °F /  12.2 °C 29.9in /  1011.5hPa Calm     96% 0in /  0.0mm 0 W/m2
01:21 55 °F /  12.8 °C 54 °F /  12.2 °C 29.9in /  1011.5hPa Calm     96% 0in /  0.0mm 0 W/m2
01:26 55 °F /  12.8 °C 54 °F /  12.2 °C 29.9in /  1011.5hPa Calm     96% 0in /  0.0mm 0 W/m2
01:36 54.9 °F /  12.7 °C 53.8 °F /  12.1 °C 29.9in /  1011.5hPa Calm     96% 0in /  0.0mm 0 W/m2
01:41 54.7 °F /  12.6 °C 53.6 °F /  12 °C 29.9in /  1011.5hPa Calm   1mph /  1.6km/h 96% 0in /  0.0mm 0 W/m2
01:46 54.5 °F /  12.5 °C 53.4 °F /  11.9 °C 29.9in /  1011.9hPa Calm   1mph /  1.6km/h 96% 0in /  0.0mm 0 W/m2
01:51 54.3 °F /  12.4 °C 53.2 °F /  11.8 °C 29.9in /  1011.9hPa Calm     96% 0in /  0.0mm 0 W/m2
01:56 54.3 °F /  12.4 °C 53.2 °F /  11.8 °C 29.9in /  1011.9hPa Calm   1mph /  1.6km/h 96% 0in /  0.0mm 0 W/m2
02:02 54.1 °F /  12.3 °C 53.1 °F /  11.7 °C 29.9in /  1011.9hPa Calm     96% 0in /  0.0mm 0 W/m2
02:07 54.1 °F /  12.3 °C 53.1 °F /  11.7 °C 29.9in /  1011.5hPa Calm     96% 0in /  0.0mm 0 W/m2
02:12 54 °F /  12.2 °C 52.9 °F /  11.6 °C 29.9in /  1011.5hPa Calm     96% 0in /  0.0mm 0 W/m2
02:17 53.8 °F /  12.1 °C 52.7 °F /  11.5 °C 29.9in /  1011.2hPa Calm     96% 0in /  0.0mm 0 W/m2
02:21 53.4 °F /  11.9 °C 52.3 °F /  11.3 °C 29.9in /  1011.2hPa Calm     96% 0in /  0.0mm 0 W/m2
02:26 53.2 °F /  11.8 °C 52.2 °F /  11.2 °C 29.9in /  1011.5hPa Calm     96% 0in /  0.0mm 0 W/m2
02:32 53.2 °F /  11.8 °C 52.2 °F /  11.2 °C 29.9in /  1011.5hPa Calm     96% 0in /  0.0mm 0 W/m2
02:37 53.1 °F /  11.7 °C 52 °F /  11.1 °C 29.9in /  1011.2hPa Calm     96% 0in /  0.0mm 0 W/m2
02:42 53.1 °F /  11.7 °C 52 °F /  11.1 °C 29.9in /  1011.2hPa Calm     96% 0in /  0.0mm 0 W/m2
02:47 53.1 °F /  11.7 °C 52 °F /  11.1 °C 29.9in /  1011.2hPa Calm     96% 0in /  0.0mm 0 W/m2
02:52 53.1 °F /  11.7 °C 52.2 °F /  11.2 °C 29.9in /  1011.2hPa Calm     97% 0in /  0.0mm 0 W/m2
02:57 52.9 °F /  11.6 °C 51.8 °F /  11 °C 29.9in /  1011.2hPa Calm     96% 0in /  0.0mm 0 W/m2
03:02 52.9 °F /  11.6 °C 51.8 °F /  11 °C 29.9in /  1011.2hPa Calm     96% 0in /  0.0mm 0 W/m2
03:07 52.5 °F /  11.4 °C 51.4 °F /  10.8 °C 29.9in /  1011.2hPa Calm     96% 0in /  0.0mm 0 W/m2
03:12 52.5 °F /  11.4 °C 51.4 °F /  10.8 °C 29.9in /  1011.2hPa Calm     96% 0in /  0.0mm 0 W/m2
03:17 52.3 °F /  11.3 °C 51.4 °F /  10.8 °C 29.9in /  1011.2hPa Calm     97% 0in /  0.0mm 0 W/m2
03:23 52.3 °F /  11.3 °C 51.4 °F /  10.8 °C 29.9in /  1011.2hPa Calm     97% 0in /  0.0mm 0 W/m2
03:28 52.3 °F /  11.3 °C 51.4 °F /  10.8 °C 29.9in /  1011.2hPa Calm     97% 0in /  0.0mm 0 W/m2
03:33 52.3 °F /  11.3 °C 51.3 °F /  10.7 °C 29.9in /  1011.2hPa Calm     96% 0in /  0.0mm 0 W/m2
03:38 52.3 °F /  11.3 °C 51.4 °F /  10.8 °C 29.9in /  1011.2hPa Calm     97% 0in /  0.0mm 0 W/m2
03:43 52.3 °F /  11.3 °C 51.4 °F /  10.8 °C 29.9in /  1011.2hPa Calm     97% 0in /  0.0mm 0 W/m2
03:48 52.3 °F /  11.3 °C 51.4 °F /  10.8 °C 29.9in /  1011.2hPa Calm     97% 0in /  0.0mm 0 W/m2
03:53 52.5 °F /  11.4 °C 51.6 °F /  10.9 °C 29.9in /  1011.2hPa Calm     97% 0in /  0.0mm 0 W/m2
03:58 52.7 °F /  11.5 °C 51.8 °F /  11 °C 29.9in /  1011.2hPa Calm   1mph /  1.6km/h 97% 0in /  0.0mm 0 W/m2
04:03 52.9 °F /  11.6 °C 52 °F /  11.1 °C 29.9in /  1011.2hPa Calm     97% 0in /  0.0mm 0 W/m2
04:08 53.1 °F /  11.7 °C 52.2 °F /  11.2 °C 29.9in /  1010.8hPa Calm     97% 0in /  0.0mm 0 W/m2
04:13 53.1 °F /  11.7 °C 52.2 °F /  11.2 °C 29.9in /  1010.8hPa Calm     97% 0in /  0.0mm 0 W/m2
04:18 53.1 °F /  11.7 °C 52.2 °F /  11.2 °C 29.9in /  1010.8hPa Calm     97% 0in /  0.0mm 0 W/m2
04:23 53.1 °F /  11.7 °C 52.2 °F /  11.2 °C 29.9in /  1010.8hPa Calm     97% 0in /  0.0mm 0 W/m2
04:28 53.1 °F /  11.7 °C 52.2 °F /  11.2 °C 29.9in /  1010.8hPa Calm     97% 0in /  0.0mm 0 W/m2
04:33 53.1 °F /  11.7 °C 52.2 °F /  11.2 °C 29.9in /  1010.8hPa Calm     97% 0in /  0.0mm 0 W/m2
04:38 53.1 °F /  11.7 °C 52.2 °F /  11.2 °C 29.9in /  1011.2hPa Calm   1mph /  1.6km/h 97% 0in /  0.0mm 0 W/m2
04:43 53.1 °F /  11.7 °C 52.2 °F /  11.2 °C 29.9in /  1011.2hPa Calm   2mph /  3.2km/h 97% 0in /  0.0mm 0 W/m2
04:48 53.1 °F /  11.7 °C 52.2 °F /  11.2 °C 29.9in /  1011.2hPa Calm   1mph /  1.6km/h 97% 0in /  0.0mm 0 W/m2
04:53 52.9 °F /  11.6 °C 52 °F /  11.1 °C 29.9in /  1011.2hPa Calm     97% 0in /  0.0mm 0 W/m2
04:58 52.9 °F /  11.6 °C 52 °F /  11.1 °C 29.9in /  1011.2hPa Calm     97% 0in /  0.0mm 0 W/m2
05:03 52.9 °F /  11.6 °C 52 °F /  11.1 °C 29.9in /  1011.2hPa SW 2mph /  3.2km/h 3mph /  4.8km/h 97% 0in /  0.0mm 0 W/m2
05:08 52.9 °F /  11.6 °C 52 °F /  11.1 °C 29.9in /  1011.2hPa Calm   1mph /  1.6km/h 97% 0in /  0.0mm 0 W/m2
05:13 52.9 °F /  11.6 °C 52 °F /  11.1 °C 29.9in /  1011.2hPa Calm   1mph /  1.6km/h 97% 0in /  0.0mm 0 W/m2
05:18 52.7 °F /  11.5 °C 51.8 °F /  11 °C 29.9in /  1011.2hPa SW 0.9mph /  1.4km/h 2mph /  3.2km/h 97% 0in /  0.0mm 0 W/m2
05:23 52.5 °F /  11.4 °C 51.6 °F /  10.9 °C 29.9in /  1011.2hPa SW 0.9mph /  1.4km/h 2mph /  3.2km/h 97% 0in /  0.0mm 0 W/m2
05:28 52.3 °F /  11.3 °C 51.4 °F /  10.8 °C 29.9in /  1011.2hPa West 2mph /  3.2km/h 2mph /  3.2km/h 97% 0in /  0.0mm 0 W/m2
05:33 52.3 °F /  11.3 °C 51.4 °F /  10.8 °C 29.9in /  1011.2hPa West 2mph /  3.2km/h 3mph /  4.8km/h 97% 0in /  0.0mm 0 W/m2
05:38 52.3 °F /  11.3 °C 51.4 °F /  10.8 °C 29.9in /  1011.2hPa West 0.9mph /  1.4km/h 2mph /  3.2km/h 97% 0in /  0.0mm 0 W/m2
05:43 52.3 °F /  11.3 °C 51.4 °F /  10.8 °C 29.9in /  1011.2hPa Calm   3mph /  4.8km/h 97% 0in /  0.0mm 5 W/m2
05:49 52.3 °F /  11.3 °C 51.4 °F /  10.8 °C 29.9in /  1011.2hPa Calm     97% 0in /  0.0mm 5 W/m2
05:54 52.3 °F /  11.3 °C 51.4 °F /  10.8 °C 29.9in /  1011.2hPa Calm     97% 0in /  0.0mm 7 W/m2
05:59 52.3 °F /  11.3 °C 51.4 °F /  10.8 °C 29.9in /  1011.2hPa West 0.9mph /  1.4km/h 2mph /  3.2km/h 97% 0in /  0.0mm 9 W/m2
06:04 52.3 °F /  11.3 °C 51.4 °F /  10.8 °C 29.9in /  1011.2hPa Calm   1mph /  1.6km/h 97% 0in /  0.0mm 9 W/m2
06:09 52.3 °F /  11.3 °C 51.4 °F /  10.8 °C 29.9in /  1011.2hPa Calm     97% 0in /  0.0mm 11 W/m2
06:12 52.3 °F /  11.3 °C 51.4 °F /  10.8 °C 29.9in /  1011.2hPa Calm     97% 0in /  0.0mm 11 W/m2
06:18 52.3 °F /  11.3 °C 51.4 °F /  10.8 °C 29.9in /  1011.2hPa Calm     97% 0in /  0.0mm 12 W/m2
06:23 52.5 °F /  11.4 °C 51.6 °F /  10.9 °C 29.9in /  1011.2hPa Calm     97% 0in /  0.0mm 14 W/m2
06:28 52.5 °F /  11.4 °C 51.6 °F /  10.9 °C 29.9in /  1011.2hPa Calm     97% 0in /  0.0mm 19 W/m2
06:33 52.5 °F /  11.4 °C 51.6 °F /  10.9 °C 29.9in /  1011.2hPa Calm     97% 0in /  0.0mm 47 W/m2
06:38 52.5 °F /  11.4 °C 51.6 °F /  10.9 °C 29.9in /  1011.2hPa Calm     97% 0in /  0.0mm 44 W/m2
06:43 52.5 °F /  11.4 °C 51.6 °F /  10.9 °C 29.9in /  1011.2hPa Calm     97% 0in /  0.0mm 54 W/m2
06:48 52.7 °F /  11.5 °C 51.8 °F /  11 °C 29.9in /  1011.2hPa Calm     97% 0in /  0.0mm 67 W/m2
06:53 52.7 °F /  11.5 °C 51.8 °F /  11 °C 29.9in /  1011.2hPa Calm     97% 0in /  0.0mm 69 W/m2
06:58 52.7 °F /  11.5 °C 51.8 °F /  11 °C 29.9in /  1011.2hPa Calm     97% 0in /  0.0mm 74 W/m2
07:03 52.9 °F /  11.6 °C 52 °F /  11.1 °C 29.9in /  1011.2hPa Calm     97% 0in /  0.0mm 116 W/m2
07:08 53.1 °F /  11.7 °C 52.2 °F /  11.2 °C 29.9in /  1011.2hPa Calm     97% 0in /  0.0mm 81 W/m2
07:18 53.1 °F /  11.7 °C 52.2 °F /  11.2 °C 29.9in /  1011.2hPa Calm     97% 0in /  0.0mm 120 W/m2
07:23 53.2 °F /  11.8 °C 52.3 °F /  11.3 °C 29.9in /  1011.2hPa Calm   1mph /  1.6km/h 97% 0in /  0.0mm 139 W/m2
07:28 53.4 °F /  11.9 °C 52.9 °F /  11.6 °C 29.9in /  1011.5hPa Calm     98% 0in /  0.0mm 114 W/m2
07:38 54 °F /  12.2 °C 53.1 °F /  11.7 °C 29.9in /  1011.5hPa West 0.9mph /  1.4km/h 2mph /  3.2km/h 97% 0in /  0.0mm 144 W/m2
07:43 54.3 °F /  12.4 °C 53.8 °F /  12.1 °C 29.9in /  1011.5hPa NE 0.9mph /  1.4km/h 2mph /  3.2km/h 98% 0in /  0.0mm 137 W/m2
07:48 54.9 °F /  12.7 °C 54.3 °F /  12.4 °C 29.9in /  1011.5hPa Calm   1mph /  1.6km/h 98% 0in /  0.0mm 132 W/m2
07:53 55 °F /  12.8 °C 54.5 °F /  12.5 °C 29.9in /  1011.5hPa NE 0.9mph /  1.4km/h 3mph /  4.8km/h 98% 0in /  0.0mm 360 W/m2
07:58 55.8 °F /  13.2 °C 55.2 °F /  12.9 °C 29.9in /  1011.5hPa North 0.9mph /  1.4km/h 2mph /  3.2km/h 98% 0in /  0.0mm 396 W/m2
08:04 55.9 °F /  13.3 °C 55.4 °F /  13 °C 29.9in /  1011.5hPa ENE 2mph /  3.2km/h 3mph /  4.8km/h 98% 0in /  0.0mm 160 W/m2
08:09 56.1 °F /  13.4 °C 55.6 °F /  13.1 °C 29.9in /  1011.9hPa East 0.9mph /  1.4km/h 1mph /  1.6km/h 98% 0in /  0.0mm 144 W/m2
08:14 56.1 °F /  13.4 °C 55.6 °F /  13.1 °C 29.9in /  1011.9hPa Calm   3mph /  4.8km/h 98% 0in /  0.0mm 156 W/m2
08:19 56.3 °F /  13.5 °C 55.8 °F /  13.2 °C 29.9in /  1011.9hPa NE 2mph /  3.2km/h 3mph /  4.8km/h 98% 0in /  0.0mm 149 W/m2
08:24 56.5 °F /  13.6 °C 55.9 °F /  13.3 °C 29.9in /  1011.9hPa SE 0.9mph /  1.4km/h 1mph /  1.6km/h 98% 0in /  0.0mm 163 W/m2
08:29 56.5 °F /  13.6 °C 55.9 °F /  13.3 °C 29.9in /  1011.9hPa South 0.9mph /  1.4km/h 1mph /  1.6km/h 98% 0in /  0.0mm 179 W/m2
08:39 57 °F /  13.9 °C 56.5 °F /  13.6 °C 29.9in /  1011.9hPa Calm   1mph /  1.6km/h 98% 0in /  0.0mm 250 W/m2
08:44 57 °F /  13.9 °C 56.5 °F /  13.6 °C 29.9in /  1011.9hPa NW 0.9mph /  1.4km/h 3mph /  4.8km/h 98% 0in /  0.0mm 276 W/m2
08:49 57.4 °F /  14.1 °C 56.5 °F /  13.6 °C 29.9in /  1011.9hPa NW 0.9mph /  1.4km/h 2mph /  3.2km/h 97% 0in /  0.0mm 276 W/m2
08:59 58.8 °F /  14.9 °C 57.9 °F /  14.4 °C 29.9in /  1011.9hPa Calm   1mph /  1.6km/h 97% 0in /  0.0mm 445 W/m2
09:04 59.4 °F /  15.2 °C 58.5 °F /  14.7 °C 29.9in /  1011.9hPa NW 0.9mph /  1.4km/h 2mph /  3.2km/h 97% 0in /  0.0mm 322 W/m2
09:09 59.4 °F /  15.2 °C 57.9 °F /  14.4 °C 29.9in /  1011.9hPa NE 0.9mph /  1.4km/h 5mph /  8km/h 95% 0in /  0.0mm 513 W/m2
09:14 59.5 °F /  15.3 °C 57.7 °F /  14.3 °C 29.9in /  1011.9hPa NW 0.9mph /  1.4km/h 2mph /  3.2km/h 94% 0in /  0.0mm 520 W/m2
09:19 60.3 °F /  15.7 °C 58.3 °F /  14.6 °C 29.9in /  1011.9hPa West 2mph /  3.2km/h 6mph /  9.7km/h 93% 0in /  0.0mm 548 W/m2
09:25 60.6 °F /  15.9 °C 58.3 °F /  14.6 °C 29.9in /  1011.9hPa NE 2mph /  3.2km/h 2mph /  3.2km/h 92% 0in /  0.0mm 570 W/m2
09:30 61.3 °F /  16.3 °C 58.6 °F /  14.8 °C 29.9in /  1011.9hPa NW 0.9mph /  1.4km/h 6mph /  9.7km/h 91% 0in /  0.0mm 571 W/m2
09:35 61.5 °F /  16.4 °C 58.6 °F /  14.8 °C 29.9in /  1012.2hPa NW 2.9mph /  4.7km/h 6mph /  9.7km/h 90% 0in /  0.0mm 582 W/m2
09:40 61.9 °F /  16.6 °C 58.6 °F /  14.8 °C 29.9in /  1012.2hPa SW 0.9mph /  1.4km/h 7mph /  11.3km/h 89% 0in /  0.0mm 570 W/m2
09:45 61.9 °F /  16.6 °C 58.3 °F /  14.6 °C 29.9in /  1011.9hPa Calm   2mph /  3.2km/h 88% 0in /  0.0mm 566 W/m2
09:50 62.1 °F /  16.7 °C 58.1 °F /  14.5 °C 29.9in /  1011.9hPa WNW 6.9mph /  11.1km/h 9mph /  14.5km/h 87% 0in /  0.0mm 577 W/m2
09:55 62.4 °F /  16.9 °C 59.2 °F /  15.1 °C 29.9in /  1011.9hPa WSW 0.9mph /  1.4km/h 2mph /  3.2km/h 89% 0in /  0.0mm 589 W/m2
10:00 63 °F /  17.2 °C 59 °F /  15 °C 29.9in /  1012.2hPa West 6.9mph /  11.1km/h 9mph /  14.5km/h 87% 0in /  0.0mm 613 W/m2
10:05 63 °F /  17.2 °C 58.5 °F /  14.7 °C 29.9in /  1012.2hPa NW 2.9mph /  4.7km/h 4mph /  6.4km/h 85% 0in /  0.0mm 687 W/m2
10:14 63.3 °F /  17.4 °C 58.8 °F /  14.9 °C 29.9in /  1011.9hPa West 4.5mph /  7.2km/h 6mph /  9.7km/h 85.5% 0in /  0.0mm 155 W/m2
10:19 63.3 °F /  17.4 °C 58.8 °F /  14.9 °C 29.9in /  1012.2hPa NNW 2.9mph /  4.7km/h 6mph /  9.7km/h 85% 0in /  0.0mm 712 W/m2
10:24 63.3 °F /  17.4 °C 58.8 °F /  14.9 °C 29.9in /  1012.2hPa WNW 2mph /  3.2km/h 4mph /  6.4km/h 85% 0in /  0.0mm 724 W/m2
10:30 63.7 °F /  17.6 °C 58.5 °F /  14.7 °C 29.9in /  1012.2hPa West 0.9mph /  1.4km/h 6mph /  9.7km/h 83% 0in /  0.0mm 696 W/m2
10:35 63.7 °F /  17.6 °C 58.1 °F /  14.5 °C 29.9in /  1011.9hPa West 4mph /  6.4km/h 4mph /  6.4km/h 82% 0in /  0.0mm 737 W/m2
10:40 64 °F /  17.8 °C 58.8 °F /  14.9 °C 29.9in /  1011.9hPa NNW 2.9mph /  4.7km/h 3mph /  4.8km/h 83% 0in /  0.0mm 747 W/m2
10:45 64.8 °F /  18.2 °C 58.5 °F /  14.7 °C 29.9in /  1011.9hPa NE 0.9mph /  1.4km/h 8mph /  12.9km/h 80% 0in /  0.0mm 800 W/m2
10:50 65.3 °F /  18.5 °C 59 °F /  15 °C 29.9in /  1011.9hPa NW 0.9mph /  1.4km/h 3mph /  4.8km/h 80% 0in /  0.0mm 853 W/m2
10:55 65.7 °F /  18.7 °C 58.3 °F /  14.6 °C 29.9in /  1012.2hPa WSW 2.9mph /  4.7km/h 14mph /  22.5km/h 77% 0in /  0.0mm 932 W/m2
11:00 65.5 °F /  18.6 °C 57.7 °F /  14.3 °C 29.9in /  1012.2hPa NW 2.9mph /  4.7km/h 5mph /  8km/h 76% 0in /  0.0mm 461 W/m2
11:10 64.9 °F /  18.3 °C 57.9 °F /  14.4 °C 29.9in /  1012.2hPa WSW 6.9mph /  11.1km/h 7mph /  11.3km/h 78% 0in /  0.0mm 109 W/m2
11:15 64.4 °F /  18 °C 57.4 °F /  14.1 °C 29.9in /  1012.2hPa West 2mph /  3.2km/h 4mph /  6.4km/h 78% 0in /  0.0mm 120 W/m2
11:20 63.9 °F /  17.7 °C 57.6 °F /  14.2 °C 29.9in /  1012.2hPa NW 7mph /  11.3km/h 7mph /  11.3km/h 80% 0in /  0.0mm 120 W/m2
11:30 63.7 °F /  17.6 °C 57.4 °F /  14.1 °C 29.9in /  1012.2hPa Calm   3mph /  4.8km/h 80% 0in /  0.0mm 264 W/m2
11:35 63.7 °F /  17.6 °C 57.4 °F /  14.1 °C 29.9in /  1012.2hPa ENE 0.9mph /  1.4km/h 2mph /  3.2km/h 80% 0in /  0.0mm 230 W/m2
11:40 63.7 °F /  17.6 °C 58.1 °F /  14.5 °C 29.9in /  1012.2hPa Calm   2mph /  3.2km/h 82% 0in /  0.0mm 274 W/m2
11:45 63.9 °F /  17.7 °C 57.9 °F /  14.4 °C 29.9in /  1012.2hPa West 7mph /  11.3km/h 7mph /  11.3km/h 81% 0in /  0.0mm 244 W/m2
11:50 64.6 °F /  18.1 °C 58.6 °F /  14.8 °C 29.9in /  1012.2hPa North 2mph /  3.2km/h 3mph /  4.8km/h 81% 0in /  0.0mm 954 W/m2
11:55 65.7 °F /  18.7 °C 59 °F /  15 °C 29.9in /  1012.2hPa Calm   7mph /  11.3km/h 79% 0in /  0.0mm 1053 W/m2
12:00 66.6 °F /  19.2 °C 57.6 °F /  14.2 °C 29.9in /  1012.2hPa WNW 0.9mph /  1.4km/h 5mph /  8km/h 73% 0in /  0.0mm 243 W/m2
12:05 66.4 °F /  19.1 °C 57.9 °F /  14.4 °C 29.9in /  1012.2hPa WNW 0.9mph /  1.4km/h 2mph /  3.2km/h 74% 0in /  0.0mm 227 W/m2
12:10 65.7 °F /  18.7 °C 56.3 °F /  13.5 °C 29.9in /  1012.2hPa NW 2.9mph /  4.7km/h 4mph /  6.4km/h 72% 0in /  0.0mm 234 W/m2
12:16 65.1 °F /  18.4 °C 56.7 °F /  13.7 °C 29.9in /  1012.2hPa SSW 0.9mph /  1.4km/h 9mph /  14.5km/h 74% 0in /  0.0mm 234 W/m2
12:21 64.9 °F /  18.3 °C 56.8 °F /  13.8 °C 29.9in /  1012.2hPa WSW 2mph /  3.2km/h 4mph /  6.4km/h 75% 0in /  0.0mm 272 W/m2
12:26 64.9 °F /  18.3 °C 57.9 °F /  14.4 °C 29.9in /  1012.2hPa Calm   1mph /  1.6km/h 78% 0in /  0.0mm 318 W/m2
12:31 65.5 °F /  18.6 °C 57.7 °F /  14.3 °C 29.9in /  1012.2hPa NE 0.9mph /  1.4km/h 3mph /  4.8km/h 76% 0in /  0.0mm 1102 W/m2
12:36 65.7 °F /  18.7 °C 55.9 °F /  13.3 °C 29.9in /  1012.2hPa WSW 4.9mph /  7.9km/h 8mph /  12.9km/h 71% 0in /  0.0mm 367 W/m2
12:41 66 °F /  18.9 °C 57.2 °F /  14 °C 29.9in /  1012.2hPa WNW 4.9mph /  7.9km/h 7mph /  11.3km/h 73% 0in /  0.0mm 879 W/m2
12:46 66.7 °F /  19.3 °C 57.4 °F /  14.1 °C 29.9in /  1012.2hPa North 4mph /  6.4km/h 8mph /  12.9km/h 72% 0in /  0.0mm 983 W/m2
12:51 66.9 °F /  19.4 °C 56.8 °F /  13.8 °C 29.9in /  1012.2hPa West 6mph /  9.7km/h 12mph /  19.3km/h 70% 0in /  0.0mm 329 W/m2
12:56 66.4 °F /  19.1 °C 55.9 °F /  13.3 °C 29.9in /  1012.2hPa WNW 0.9mph /  1.4km/h 11mph /  17.7km/h 69% 0in /  0.0mm 374 W/m2
13:01 65.7 °F /  18.7 °C 55.9 °F /  13.3 °C 29.9in /  1012.5hPa West 0.9mph /  1.4km/h 6mph /  9.7km/h 71% 0in /  0.0mm 246 W/m2
13:06 65.7 °F /  18.7 °C 56.8 °F /  13.8 °C 29.9in /  1012.2hPa WSW 2mph /  3.2km/h 11mph /  17.7km/h 73% 0in /  0.0mm 216 W/m2
13:11 65.7 °F /  18.7 °C 56.8 °F /  13.8 °C 29.9in /  1012.2hPa NW 4mph /  6.4km/h 4mph /  6.4km/h 73% 0in /  0.0mm 302 W/m2
13:21 65.8 °F /  18.8 °C 57.4 °F /  14.1 °C 29.9in /  1012.2hPa NNW 0.9mph /  1.4km/h 2mph /  3.2km/h 74% 0in /  0.0mm 325 W/m2
13:26 65.8 °F /  18.8 °C 57.4 °F /  14.1 °C 29.9in /  1012.2hPa West 4mph /  6.4km/h 5mph /  8km/h 74% 0in /  0.0mm 271 W/m2
13:31 66.2 °F /  19 °C 56.8 °F /  13.8 °C 29.9in /  1012.2hPa WNW 4mph /  6.4km/h 4mph /  6.4km/h 72% 0in /  0.0mm 262 W/m2
13:36 66.4 °F /  19.1 °C 56.3 °F /  13.5 °C 29.9in /  1012.2hPa NW 2.9mph /  4.7km/h 4mph /  6.4km/h 70% 0in /  0.0mm 301 W/m2
13:41 66.6 °F /  19.2 °C 56.8 °F /  13.8 °C 29.9in /  1012.2hPa ENE 2mph /  3.2km/h 6mph /  9.7km/h 71% 0in /  0.0mm 411 W/m2
13:47 66.7 °F /  19.3 °C 56.3 °F /  13.5 °C 29.9in /  1012.2hPa WNW 2mph /  3.2km/h 2mph /  3.2km/h 69% 0in /  0.0mm 302 W/m2
13:52 66.7 °F /  19.3 °C 55.8 °F /  13.2 °C 29.9in /  1012.2hPa Calm   2mph /  3.2km/h 68% 0in /  0.0mm 253 W/m2
13:57 66.7 °F /  19.3 °C 55.8 °F /  13.2 °C 29.9in /  1012.2hPa NE 2mph /  3.2km/h 4mph /  6.4km/h 68% 0in /  0.0mm 311 W/m2
14:02 66.7 °F /  19.3 °C 56.3 °F /  13.5 °C 29.9in /  1012.2hPa NNE 0.9mph /  1.4km/h 4mph /  6.4km/h 69% 0in /  0.0mm 454 W/m2
14:07 67.3 °F /  19.6 °C 56.8 °F /  13.8 °C 29.9in /  1012.2hPa ENE 2mph /  3.2km/h 4mph /  6.4km/h 69% 0in /  0.0mm 1065 W/m2
14:12 67.6 °F /  19.8 °C 57 °F /  13.9 °C 29.9in /  1012.2hPa West 2mph /  3.2km/h 4mph /  6.4km/h 69% 0in /  0.0mm 185 W/m2
14:17 67.6 °F /  19.8 °C 57 °F /  13.9 °C 29.9in /  1012.2hPa East 2mph /  3.2km/h 2mph /  3.2km/h 69% 0in /  0.0mm 216 W/m2
14:22 67.8 °F /  19.9 °C 58.8 °F /  14.9 °C 29.9in /  1012.2hPa NNE 0.9mph /  1.4km/h 2mph /  3.2km/h 73% 0in /  0.0mm 230 W/m2
14:27 67.8 °F /  19.9 °C 57.2 °F /  14 °C 29.9in /  1012.2hPa Calm   1mph /  1.6km/h 69% 0in /  0.0mm 234 W/m2
14:32 68 °F /  20 °C 57.4 °F /  14.1 °C 29.9in /  1012.2hPa WNW 0.9mph /  1.4km/h 3mph /  4.8km/h 69% 0in /  0.0mm 373 W/m2
14:37 68 °F /  20 °C 57.4 °F /  14.1 °C 29.9in /  1012.2hPa NW 2mph /  3.2km/h 2mph /  3.2km/h 69% 0in /  0.0mm 473 W/m2
14:42 68.4 °F /  20.2 °C 57.7 °F /  14.3 °C 29.9in /  1012.2hPa WSW 6mph /  9.7km/h 6mph /  9.7km/h 69% 0in /  0.0mm 522 W/m2
14:47 68.7 °F /  20.4 °C 56.5 °F /  13.6 °C 29.9in /  1012.2hPa Calm   3mph /  4.8km/h 65% 0in /  0.0mm 673 W/m2
14:52 68.7 °F /  20.4 °C 56.5 °F /  13.6 °C 29.9in /  1012.2hPa ENE 2.9mph /  4.7km/h 4mph /  6.4km/h 65% 0in /  0.0mm 568 W/m2
14:57 68.7 °F /  20.4 °C 57.4 °F /  14.1 °C 29.9in /  1012.2hPa West 2mph /  3.2km/h 3mph /  4.8km/h 67% 0in /  0.0mm 557 W/m2
15:02 68.7 °F /  20.4 °C 57.4 °F /  14.1 °C 29.9in /  1012.2hPa West 4mph /  6.4km/h 10mph /  16.1km/h 67% 0in /  0.0mm 622 W/m2
15:07 68.4 °F /  20.2 °C 56.1 °F /  13.4 °C 29.9in /  1012.2hPa WNW 2.9mph /  4.7km/h 6mph /  9.7km/h 65% 0in /  0.0mm 561 W/m2
15:12 68.4 °F /  20.2 °C 56.5 °F /  13.6 °C 29.9in /  1012.2hPa West 2mph /  3.2km/h 9mph /  14.5km/h 66% 0in /  0.0mm 909 W/m2
15:17 67.8 °F /  19.9 °C 56.5 °F /  13.6 °C 29.9in /  1012.2hPa NW 2.9mph /  4.7km/h 3mph /  4.8km/h 67% 0in /  0.0mm 294 W/m2
15:22 67.8 °F /  19.9 °C 57.2 °F /  14 °C 29.9in /  1012.2hPa WNW 0.9mph /  1.4km/h 8mph /  12.9km/h 69% 0in /  0.0mm 531 W/m2
15:27 68.2 °F /  20.1 °C 56.8 °F /  13.8 °C 29.9in /  1012.2hPa NNW 2mph /  3.2km/h 3mph /  4.8km/h 67% 0in /  0.0mm 478 W/m2
15:32 68.4 °F /  20.2 °C 57.4 °F /  14.1 °C 29.9in /  1012.2hPa WSW 2.9mph /  4.7km/h 7mph /  11.3km/h 68% 0in /  0.0mm 294 W/m2
15:37 68.5 °F /  20.3 °C 57.6 °F /  14.2 °C 29.9in /  1012.2hPa Calm   4mph /  6.4km/h 68% 0in /  0.0mm 248 W/m2
15:42 68.4 °F /  20.2 °C 56.5 °F /  13.6 °C 29.9in /  1012.2hPa NW 2mph /  3.2km/h 4mph /  6.4km/h 66% 0in /  0.0mm 265 W/m2
15:47 68.2 °F /  20.1 °C 56.8 °F /  13.8 °C 29.9in /  1012.2hPa WSW 2mph /  3.2km/h 4mph /  6.4km/h 67% 0in /  0.0mm 269 W/m2
15:52 67.6 °F /  19.8 °C 56.7 °F /  13.7 °C 29.9in /  1012.2hPa WSW 2.9mph /  4.7km/h 4mph /  6.4km/h 68% 0in /  0.0mm 248 W/m2
15:57 67.6 °F /  19.8 °C 57 °F /  13.9 °C 29.9in /  1012.2hPa West 0.9mph /  1.4km/h 4mph /  6.4km/h 69% 0in /  0.0mm 225 W/m2
16:02 67.5 °F /  19.7 °C 57 °F /  13.9 °C 29.9in /  1011.9hPa NW 2.9mph /  4.7km/h 4mph /  6.4km/h 69% 0in /  0.0mm 272 W/m2
16:07 67.6 °F /  19.8 °C 57 °F /  13.9 °C 29.9in /  1011.9hPa Calm   1mph /  1.6km/h 69% 0in /  0.0mm 381 W/m2
16:12 68.4 °F /  20.2 °C 57.4 °F /  14.1 °C 29.9in /  1011.9hPa NW 0.9mph /  1.4km/h 8mph /  12.9km/h 68% 0in /  0.0mm 427 W/m2
16:17 69.4 °F /  20.8 °C 57.6 °F /  14.2 °C 29.9in /  1011.9hPa SSW 2.9mph /  4.7km/h 4mph /  6.4km/h 66% 0in /  0.0mm 998 W/m2
16:22 70.2 °F /  21.2 °C 56.5 °F /  13.6 °C 29.9in /  1011.9hPa SW 4.9mph /  7.9km/h 10mph /  16.1km/h 62% 0in /  0.0mm 786 W/m2
16:27 70.3 °F /  21.3 °C 55.8 °F /  13.2 °C 29.9in /  1011.9hPa WNW 4mph /  6.4km/h 9mph /  14.5km/h 60% 0in /  0.0mm 754 W/m2
16:32 70.2 °F /  21.2 °C 55.2 °F /  12.9 °C 29.9in /  1011.9hPa NW 2.9mph /  4.7km/h 8mph /  12.9km/h 59% 0in /  0.0mm 737 W/m2
16:37 70.7 °F /  21.5 °C 56.7 °F /  13.7 °C 29.9in /  1011.9hPa West 0.9mph /  1.4km/h 4mph /  6.4km/h 61% 0in /  0.0mm 722 W/m2
16:42 70.9 °F /  21.6 °C 56.3 °F /  13.5 °C 29.9in /  1011.9hPa WNW 4.9mph /  7.9km/h 6mph /  9.7km/h 60% 0in /  0.0mm 721 W/m2
16:47 71.1 °F /  21.7 °C 56.5 °F /  13.6 °C 29.9in /  1011.9hPa Calm   3mph /  4.8km/h 60% 0in /  0.0mm 701 W/m2
16:52 71.2 °F /  21.8 °C 57 °F /  13.9 °C 29.9in /  1011.9hPa WSW 6.9mph /  11.1km/h 8mph /  12.9km/h 61% 0in /  0.0mm 701 W/m2
16:57 71.2 °F /  21.8 °C 55.8 °F /  13.2 °C 29.9in /  1011.9hPa NW 4mph /  6.4km/h 7mph /  11.3km/h 58% 0in /  0.0mm 689 W/m2
17:03 71.1 °F /  21.7 °C 55.9 °F /  13.3 °C 29.9in /  1011.9hPa WNW 2.9mph /  4.7km/h 8mph /  12.9km/h 59% 0in /  0.0mm 694 W/m2
17:08 71.2 °F /  21.8 °C 55.8 °F /  13.2 °C 29.9in /  1011.9hPa NW 4.9mph /  7.9km/h 5mph /  8km/h 58% 0in /  0.0mm 670 W/m2
17:13 71.4 °F /  21.9 °C 55.9 °F /  13.3 °C 29.9in /  1011.9hPa WSW 2mph /  3.2km/h 8mph /  12.9km/h 58% 0in /  0.0mm 673 W/m2
17:18 71.4 °F /  21.9 °C 56.8 °F /  13.8 °C 29.9in /  1011.9hPa WSW 8.1mph /  13km/h 8mph /  12.9km/h 60% 0in /  0.0mm 650 W/m2
17:23 71.4 °F /  21.9 °C 55.9 °F /  13.3 °C 29.9in /  1011.9hPa NW 0.9mph /  1.4km/h 4mph /  6.4km/h 58% 0in /  0.0mm 638 W/m2
17:28 71.8 °F /  22.1 °C 56.7 °F /  13.7 °C 29.9in /  1011.9hPa West 0.9mph /  1.4km/h 8mph /  12.9km/h 59% 0in /  0.0mm 629 W/m2
17:33 72.1 °F /  22.3 °C 56.1 °F /  13.4 °C 29.9in /  1011.9hPa WNW 2.9mph /  4.7km/h 3mph /  4.8km/h 57% 0in /  0.0mm 628 W/m2
17:38 72.7 °F /  22.6 °C 55.6 °F /  13.1 °C 29.9in /  1011.9hPa SW 2.9mph /  4.7km/h 5mph /  8km/h 55% 0in /  0.0mm 622 W/m2
17:43 72.7 °F /  22.6 °C 55 °F /  12.8 °C 29.9in /  1011.5hPa WSW 0.9mph /  1.4km/h 4mph /  6.4km/h 54% 0in /  0.0mm 636 W/m2
17:48 72.9 °F /  22.7 °C 56.7 °F /  13.7 °C 29.9in /  1011.9hPa WSW 6.9mph /  11.1km/h 7mph /  11.3km/h 57% 0in /  0.0mm 624 W/m2
17:53 73 °F /  22.8 °C 55.4 °F /  13 °C 29.9in /  1011.5hPa West 2.9mph /  4.7km/h 6mph /  9.7km/h 54% 0in /  0.0mm 617 W/m2
17:58 72.7 °F /  22.6 °C 55 °F /  12.8 °C 29.9in /  1011.5hPa West 2.9mph /  4.7km/h 7mph /  11.3km/h 54% 0in /  0.0mm 624 W/m2
18:03 72.3 °F /  22.4 °C 54.7 °F /  12.6 °C 29.9in /  1011.5hPa West 0.9mph /  1.4km/h 4mph /  6.4km/h 54% 0in /  0.0mm 592 W/m2
18:08 72.7 °F /  22.6 °C 54.5 °F /  12.5 °C 29.9in /  1011.5hPa NW 4mph /  6.4km/h 9mph /  14.5km/h 53% 0in /  0.0mm 541 W/m2
18:13 72.7 °F /  22.6 °C 54.5 °F /  12.5 °C 29.9in /  1011.5hPa WSW 6.9mph /  11.1km/h 9mph /  14.5km/h 53% 0in /  0.0mm 538 W/m2
18:18 72.9 °F /  22.7 °C 55.2 °F /  12.9 °C 29.9in /  1011.5hPa East 2mph /  3.2km/h 2mph /  3.2km/h 54% 0in /  0.0mm 526 W/m2
18:23 73 °F /  22.8 °C 53.8 °F /  12.1 °C 29.9in /  1011.5hPa West 2mph /  3.2km/h 6mph /  9.7km/h 51% 0in /  0.0mm 503 W/m2
18:28 73.2 °F /  22.9 °C 54 °F /  12.2 °C 29.9in /  1011.5hPa West 2mph /  3.2km/h 6mph /  9.7km/h 51% 0in /  0.0mm 425 W/m2
18:34 72.7 °F /  22.6 °C 54 °F /  12.2 °C 29.9in /  1011.5hPa West 2mph /  3.2km/h 3mph /  4.8km/h 52% 0in /  0.0mm 387 W/m2
18:39 72.3 °F /  22.4 °C 53.8 °F /  12.1 °C 29.9in /  1011.5hPa WSW 4.9mph /  7.9km/h 8mph /  12.9km/h 52% 0in /  0.0mm 388 W/m2
18:44 72.1 °F /  22.3 °C 53.6 °F /  12 °C 29.9in /  1011.5hPa WSW 0.9mph /  1.4km/h 4mph /  6.4km/h 52% 0in /  0.0mm 91 W/m2
18:49 71.8 °F /  22.1 °C 54.7 °F /  12.6 °C 29.9in /  1011.5hPa West 2mph /  3.2km/h 4mph /  6.4km/h 55% 0in /  0.0mm 116 W/m2
18:54 71.4 °F /  21.9 °C 55.4 °F /  13 °C 29.9in /  1011.5hPa West 0.9mph /  1.4km/h 1mph /  1.6km/h 57% 0in /  0.0mm 105 W/m2
18:59 71.2 °F /  21.8 °C 54.7 °F /  12.6 °C 29.9in /  1011.5hPa Calm   2mph /  3.2km/h 56% 0in /  0.0mm 163 W/m2
19:04 71.4 °F /  21.9 °C 54 °F /  12.2 °C 29.9in /  1011.5hPa NW 2mph /  3.2km/h 4mph /  6.4km/h 54% 0in /  0.0mm 346 W/m2
19:09 71.8 °F /  22.1 °C 54.7 °F /  12.6 °C 29.9in /  1011.5hPa East 2mph /  3.2km/h 6mph /  9.7km/h 55% 0in /  0.0mm 345 W/m2
19:14 72.1 °F /  22.3 °C 55 °F /  12.8 °C 29.9in /  1011.5hPa NNE 2mph /  3.2km/h 2mph /  3.2km/h 55% 0in /  0.0mm 381 W/m2
19:19 72.7 °F /  22.6 °C 57 °F /  13.9 °C 29.9in /  1011.5hPa ESE 0.9mph /  1.4km/h 4mph /  6.4km/h 58% 0in /  0.0mm 339 W/m2
19:24 72.9 °F /  22.7 °C 55.8 °F /  13.2 °C 29.9in /  1011.5hPa Calm   1mph /  1.6km/h 55% 0in /  0.0mm 200 W/m2
19:29 73 °F /  22.8 °C 54.3 °F /  12.4 °C 29.9in /  1011.5hPa WSW 0.9mph /  1.4km/h 5mph /  8km/h 52% 0in /  0.0mm 302 W/m2
19:34 72.9 °F /  22.7 °C 54.7 °F /  12.6 °C 29.9in /  1011.5hPa WNW 2.9mph /  4.7km/h 4mph /  6.4km/h 53% 0in /  0.0mm 272 W/m2
19:39 72.9 °F /  22.7 °C 55.8 °F /  13.2 °C 29.9in /  1011.5hPa NW 2.9mph /  4.7km/h 5mph /  8km/h 55% 0in /  0.0mm 243 W/m2
19:44 72.9 °F /  22.7 °C 56.3 °F /  13.5 °C 29.9in /  1011.5hPa WNW 2.9mph /  4.7km/h 4mph /  6.4km/h 56% 0in /  0.0mm 199 W/m2
19:49 72.7 °F /  22.6 °C 55.6 °F /  13.1 °C 29.9in /  1011.5hPa WSW 0.9mph /  1.4km/h 6mph /  9.7km/h 55% 0in /  0.0mm 193 W/m2
19:54 72.3 °F /  22.4 °C 55.2 °F /  12.9 °C 29.9in /  1011.5hPa WSW 2mph /  3.2km/h 3mph /  4.8km/h 55% 0in /  0.0mm 197 W/m2
19:59 72 °F /  22.2 °C 55.9 °F /  13.3 °C 29.9in /  1011.5hPa NW 2.9mph /  4.7km/h 6mph /  9.7km/h 57% 0in /  0.0mm 67 W/m2
20:04 71.2 °F /  21.8 °C 54.3 °F /  12.4 °C 29.9in /  1011.5hPa WSW 2mph /  3.2km/h 3mph /  4.8km/h 55% 0in /  0.0mm 58 W/m2
20:09 70.5 °F /  21.4 °C 55.6 °F /  13.1 °C 29.9in /  1011.5hPa Calm   6mph /  9.7km/h 59% 0in /  0.0mm 67 W/m2
20:14 70.2 °F /  21.2 °C 56.1 °F /  13.4 °C 29.9in /  1011.9hPa West 2mph /  3.2km/h 2mph /  3.2km/h 61% 0in /  0.0mm 83 W/m2
20:19 69.8 °F /  21 °C 57 °F /  13.9 °C 29.9in /  1011.9hPa Calm   1mph /  1.6km/h 64% 0in /  0.0mm 181 W/m2
20:24 70 °F /  21.1 °C 55.9 °F /  13.3 °C 29.9in /  1011.9hPa West 2mph /  3.2km/h 3mph /  4.8km/h 61% 0in /  0.0mm 169 W/m2
20:29 70.2 °F /  21.2 °C 55.6 °F /  13.1 °C 29.9in /  1011.9hPa Calm   4mph /  6.4km/h 60% 0in /  0.0mm 155 W/m2
20:34 70.3 °F /  21.3 °C 55.8 °F /  13.2 °C 29.9in /  1011.9hPa WSW 2mph /  3.2km/h 4mph /  6.4km/h 60% 0in /  0.0mm 109 W/m2
20:39 70.2 °F /  21.2 °C 55.6 °F /  13.1 °C 29.9in /  1011.9hPa West 2.9mph /  4.7km/h 5mph /  8km/h 60% 0in /  0.0mm 90 W/m2
20:44 70 °F /  21.1 °C 55.9 °F /  13.3 °C 29.9in /  1011.9hPa West 4mph /  6.4km/h 4mph /  6.4km/h 61% 0in /  0.0mm 79 W/m2
20:49 69.6 °F /  20.9 °C 55.9 °F /  13.3 °C 29.9in /  1011.9hPa West 2.9mph /  4.7km/h 3mph /  4.8km/h 62% 0in /  0.0mm 69 W/m2
20:54 69.3 °F /  20.7 °C 56.1 °F /  13.4 °C 29.9in /  1011.9hPa Calm   2mph /  3.2km/h 63% 0in /  0.0mm 60 W/m2
20:59 69.1 °F /  20.6 °C 56.5 °F /  13.6 °C 29.9in /  1012.2hPa WNW 0.9mph /  1.4km/h 3mph /  4.8km/h 64% 0in /  0.0mm 51 W/m2
21:04 68.7 °F /  20.4 °C 56.5 °F /  13.6 °C 29.9in /  1012.2hPa West 2.9mph /  4.7km/h 3mph /  4.8km/h 65% 0in /  0.0mm 42 W/m2
21:09 68.2 °F /  20.1 °C 55.6 °F /  13.1 °C 29.9in /  1011.9hPa West 0.9mph /  1.4km/h 6mph /  9.7km/h 64% 0in /  0.0mm 33 W/m2
21:14 67.5 °F /  19.7 °C 55.8 °F /  13.2 °C 29.9in /  1012.2hPa WSW 2mph /  3.2km/h 3mph /  4.8km/h 66% 0in /  0.0mm 18 W/m2
21:19 66.7 °F /  19.3 °C 55.8 °F /  13.2 °C 29.9in /  1012.2hPa WSW 0.9mph /  1.4km/h 5mph /  8km/h 68% 0in /  0.0mm 16 W/m2
21:24 66.2 °F /  19 °C 55.8 °F /  13.2 °C 29.9in /  1012.2hPa WNW 2mph /  3.2km/h 3mph /  4.8km/h 69% 0in /  0.0mm 12 W/m2
21:29 65.8 °F /  18.8 °C 55.4 °F /  13 °C 29.9in /  1012.2hPa West 2mph /  3.2km/h 6mph /  9.7km/h 69% 0in /  0.0mm 9 W/m2
21:34 65.3 °F /  18.5 °C 55.2 °F /  12.9 °C 29.9in /  1012.2hPa Calm   2mph /  3.2km/h 70% 0in /  0.0mm 7 W/m2
21:39 64.9 °F /  18.3 °C 55.4 °F /  13 °C 29.9in /  1012.5hPa Calm   5mph /  8km/h 71% 0in /  0.0mm 5 W/m2
21:44 64.6 °F /  18.1 °C 55.4 °F /  13 °C 29.9in /  1012.5hPa Calm   2mph /  3.2km/h 72% 0in /  0.0mm 0 W/m2
21:49 64.2 °F /  17.9 °C 55.4 °F /  13 °C 29.9in /  1012.5hPa West 0.9mph /  1.4km/h 3mph /  4.8km/h 73% 0in /  0.0mm 0 W/m2
21:54 63.9 °F /  17.7 °C 55.8 °F /  13.2 °C 29.9in /  1012.9hPa West 0.9mph /  1.4km/h 1mph /  1.6km/h 75% 0in /  0.0mm 0 W/m2
21:59 63.5 °F /  17.5 °C 56.1 °F /  13.4 °C 29.9in /  1012.9hPa West 0.9mph /  1.4km/h 3mph /  4.8km/h 77% 0in /  0.0mm 0 W/m2
22:04 63 °F /  17.2 °C 55.6 °F /  13.1 °C 29.9in /  1012.9hPa West 0.9mph /  1.4km/h 1mph /  1.6km/h 77% 0in /  0.0mm 0 W/m2
22:09 62.4 °F /  16.9 °C 55.4 °F /  13 °C 29.9in /  1012.9hPa Calm   1mph /  1.6km/h 78% 0in /  0.0mm 0 W/m2
22:14 61.9 °F /  16.6 °C 54.9 °F /  12.7 °C 29.9in /  1013.2hPa Calm   2mph /  3.2km/h 78% 0in /  0.0mm 0 W/m2
22:19 61.5 °F /  16.4 °C 54.7 °F /  12.6 °C 29.9in /  1013.2hPa Calm   1mph /  1.6km/h 78% 0in /  0.0mm 0 W/m2
22:24 61.3 °F /  16.3 °C 55 °F /  12.8 °C 29.9in /  1013.2hPa WSW 0.9mph /  1.4km/h 1mph /  1.6km/h 80% 0in /  0.0mm 0 W/m2
22:29 61.2 °F /  16.2 °C 54.9 °F /  12.7 °C 29.9in /  1013.2hPa Calm   1mph /  1.6km/h 80% 0in /  0.0mm 0 W/m2
22:34 60.6 °F /  15.9 °C 54.7 °F /  12.6 °C 29.9in /  1013.2hPa Calm     81% 0in /  0.0mm 0 W/m2
22:39 60.4 °F /  15.8 °C 54.3 °F /  12.4 °C 29.9in /  1013.2hPa Calm     80% 0in /  0.0mm 0 W/m2
22:44 60.4 °F /  15.8 °C 54.5 °F /  12.5 °C 29.9in /  1013.2hPa Calm     81% 0in /  0.0mm 0 W/m2
22:49 60.3 °F /  15.7 °C 54.7 °F /  12.6 °C 29.9in /  1013.5hPa Calm     82% 0in /  0.0mm 0 W/m2
22:54 60.1 °F /  15.6 °C 54.5 °F /  12.5 °C 29.9in /  1013.5hPa Calm     82% 0in /  0.0mm 0 W/m2
22:59 59.7 °F /  15.4 °C 54.5 °F /  12.5 °C 29.9in /  1013.5hPa Calm     83% 0in /  0.0mm 0 W/m2
23:04 59.5 °F /  15.3 °C 54.3 °F /  12.4 °C 29.9in /  1013.5hPa Calm     83% 0in /  0.0mm 0 W/m2
23:09 59.2 °F /  15.1 °C 54.3 °F /  12.4 °C 29.9in /  1013.5hPa Calm     84% 0in /  0.0mm 0 W/m2
23:15 59 °F /  15 °C 54.1 °F /  12.3 °C 29.9in /  1013.5hPa WSW 0.9mph /  1.4km/h 2mph /  3.2km/h 84% 0in /  0.0mm 0 W/m2
23:20 58.8 °F /  14.9 °C 54 °F /  12.2 °C 29.9in /  1013.5hPa Calm     84% 0in /  0.0mm 0 W/m2
23:25 58.6 °F /  14.8 °C 54.1 °F /  12.3 °C 29.9in /  1013.5hPa WSW 0.9mph /  1.4km/h 2mph /  3.2km/h 85% 0in /  0.0mm 0 W/m2
23:30 58.6 °F /  14.8 °C 54.1 °F /  12.3 °C 29.9in /  1013.5hPa Calm   1mph /  1.6km/h 85% 0in /  0.0mm 0 W/m2
23:35 58.6 °F /  14.8 °C 54.1 °F /  12.3 °C 29.9in /  1013.5hPa WSW 0.9mph /  1.4km/h 1mph /  1.6km/h 85% 0in /  0.0mm 0 W/m2
23:40 58.6 °F /  14.8 °C 54.1 °F /  12.3 °C 29.9in /  1013.5hPa Calm     85% 0in /  0.0mm 0 W/m2
23:45 58.6 °F /  14.8 °C 53.8 °F /  12.1 °C 29.9in /  1013.5hPa WSW 2mph /  3.2km/h 2mph /  3.2km/h 84% 0in /  0.0mm 0 W/m2
23:50 59.4 °F /  15.2 °C 54.1 °F /  12.3 °C 29.9in /  1013.5hPa Calm   2mph /  3.2km/h 83% 0in /  0.0mm 0 W/m2
23:55 59.7 °F /  15.4 °C 54.1 °F /  12.3 °C 29.9in /  1013.9hPa WSW 0.9mph /  1.4km/h 2mph /  3.2km/h 82% 0in /  0.0mm 0 W/m2
Juneau County Weather
Compliments of Weather Underground - 4 mb